sensor_id;sensor_type;location;lat;lon;timestamp;pressure;altitude;pressure_sealevel;temperature;humidity
31088;BME280;17745;55.914;37.554;2023-04-09T00:01:47;100128.59;;;9.74;39.88
31088;BME280;17745;55.914;37.554;2023-04-09T00:04:15;100142.19;;;9.78;39.89
31088;BME280;17745;55.914;37.554;2023-04-09T00:06:44;100142.41;;;9.76;39.94
31088;BME280;17745;55.914;37.554;2023-04-09T00:09:12;100139.16;;;9.74;40.06
31088;BME280;17745;55.914;37.554;2023-04-09T00:11:41;100141.47;;;9.70;40.08
31088;BME280;17745;55.914;37.554;2023-04-09T00:14:08;100139.25;;;9.67;40.12
31088;BME280;17745;55.914;37.554;2023-04-09T00:16:37;100143.97;;;9.65;40.30
31088;BME280;17745;55.914;37.554;2023-04-09T00:19:05;100138.91;;;9.64;40.34
31088;BME280;17745;55.914;37.554;2023-04-09T00:21:34;100140.97;;;9.62;40.37
31088;BME280;17745;55.914;37.554;2023-04-09T00:24:03;100135.31;;;9.58;40.38
31088;BME280;17745;55.914;37.554;2023-04-09T00:26:35;100137.12;;;9.57;40.48
31088;BME280;17745;55.914;37.554;2023-04-09T00:29:02;100138.63;;;9.53;40.48
31088;BME280;17745;55.914;37.554;2023-04-09T00:31:31;100139.06;;;9.50;40.62
31088;BME280;17745;55.914;37.554;2023-04-09T00:34:15;100137.44;;;9.49;40.66
31088;BME280;17745;55.914;37.554;2023-04-09T00:36:43;100134.81;;;9.49;40.67
31088;BME280;17745;55.914;37.554;2023-04-09T00:39:14;100135.00;;;9.48;40.69
31088;BME280;17745;55.914;37.554;2023-04-09T00:41:42;100135.00;;;9.48;40.81
31088;BME280;17745;55.914;37.554;2023-04-09T00:44:11;100138.94;;;9.45;40.83
31088;BME280;17745;55.914;37.554;2023-04-09T00:46:40;100132.25;;;9.42;40.90
31088;BME280;17745;55.914;37.554;2023-04-09T00:49:09;100138.56;;;9.41;40.94
31088;BME280;17745;55.914;37.554;2023-04-09T00:51:43;100134.28;;;9.40;40.95
31088;BME280;17745;55.914;37.554;2023-04-09T00:54:14;100131.06;;;9.38;41.09
31088;BME280;17745;55.914;37.554;2023-04-09T00:56:43;100136.34;;;9.38;41.13
31088;BME280;17745;55.914;37.554;2023-04-09T00:59:14;100130.25;;;9.38;41.08
31088;BME280;17745;55.914;37.554;2023-04-09T01:01:41;100129.25;;;9.39;41.17
31088;BME280;17745;55.914;37.554;2023-04-09T01:04:09;100125.78;;;9.38;41.11
31088;BME280;17745;55.914;37.554;2023-04-09T01:06:43;100128.44;;;9.38;41.17
31088;BME280;17745;55.914;37.554;2023-04-09T01:09:21;100129.25;;;9.39;41.30
31088;BME280;17745;55.914;37.554;2023-04-09T01:12:00;100129.00;;;9.40;41.38
31088;BME280;17745;55.914;37.554;2023-04-09T01:14:37;100132.69;;;9.39;41.39
31088;BME280;17745;55.914;37.554;2023-04-09T01:17:13;100123.16;;;9.38;41.35
31088;BME280;17745;55.914;37.554;2023-04-09T01:19:47;100132.47;;;9.41;41.45
31088;BME280;17745;55.914;37.554;2023-04-09T01:22:30;100137.53;;;9.42;41.36
31088;BME280;17745;55.914;37.554;2023-04-09T01:25:11;100130.19;;;9.44;41.42
31088;BME280;17745;55.914;37.554;2023-04-09T01:27:54;100134.59;;;9.51;41.44
31088;BME280;17745;55.914;37.554;2023-04-09T01:30:27;100137.38;;;9.56;41.44
31088;BME280;17745;55.914;37.554;2023-04-09T01:32:56;100134.88;;;9.61;41.37
31088;BME280;17745;55.914;37.554;2023-04-09T01:35:25;100134.41;;;9.64;41.35
31088;BME280;17745;55.914;37.554;2023-04-09T01:37:56;100139.25;;;9.67;41.41
31088;BME280;17745;55.914;37.554;2023-04-09T01:40:25;100143.09;;;9.71;41.37
31088;BME280;17745;55.914;37.554;2023-04-09T01:42:52;100142.63;;;9.75;41.36
31088;BME280;17745;55.914;37.554;2023-04-09T01:45:21;100141.38;;;9.77;41.35
31088;BME280;17745;55.914;37.554;2023-04-09T01:47:52;100136.44;;;9.81;41.42
31088;BME280;17745;55.914;37.554;2023-04-09T01:50:20;100137.03;;;9.83;41.41
31088;BME280;17745;55.914;37.554;2023-04-09T01:52:48;100137.84;;;9.83;41.38
31088;BME280;17745;55.914;37.554;2023-04-09T01:55:17;100140.81;;;9.87;41.39
31088;BME280;17745;55.914;37.554;2023-04-09T01:57:44;100138.75;;;9.89;41.37
31088;BME280;17745;55.914;37.554;2023-04-09T02:00:13;100136.72;;;9.91;41.37
31088;BME280;17745;55.914;37.554;2023-04-09T02:02:45;100142.94;;;9.97;41.38
31088;BME280;17745;55.914;37.554;2023-04-09T02:05:18;100143.88;;;10.02;41.43
31088;BME280;17745;55.914;37.554;2023-04-09T02:07:53;100137.09;;;10.07;41.39
31088;BME280;17745;55.914;37.554;2023-04-09T02:10:23;100140.31;;;10.09;41.39
31088;BME280;17745;55.914;37.554;2023-04-09T02:12:54;100139.66;;;10.13;41.30
31088;BME280;17745;55.914;37.554;2023-04-09T02:15:23;100132.09;;;10.17;41.27
31088;BME280;17745;55.914;37.554;2023-04-09T02:17:52;100134.47;;;10.19;41.22
31088;BME280;17745;55.914;37.554;2023-04-09T02:20:22;100134.06;;;10.22;41.21
31088;BME280;17745;55.914;37.554;2023-04-09T02:22:49;100133.59;;;10.25;41.22
31088;BME280;17745;55.914;37.554;2023-04-09T02:25:17;100134.38;;;10.25;41.21
31088;BME280;17745;55.914;37.554;2023-04-09T02:27:45;100134.75;;;10.29;41.23
31088;BME280;17745;55.914;37.554;2023-04-09T02:30:12;100126.59;;;10.30;41.24
31088;BME280;17745;55.914;37.554;2023-04-09T02:32:40;100133.72;;;10.30;41.26
31088;BME280;17745;55.914;37.554;2023-04-09T02:35:08;100130.25;;;10.29;41.27
31088;BME280;17745;55.914;37.554;2023-04-09T02:37:37;100127.59;;;10.29;41.27
31088;BME280;17745;55.914;37.554;2023-04-09T02:40:05;100131.28;;;10.28;41.32
31088;BME280;17745;55.914;37.554;2023-04-09T02:42:34;100133.13;;;10.28;41.33
31088;BME280;17745;55.914;37.554;2023-04-09T02:45:01;100138.44;;;10.28;41.32
31088;BME280;17745;55.914;37.554;2023-04-09T02:47:30;100130.25;;;10.29;41.31
31088;BME280;17745;55.914;37.554;2023-04-09T02:49:58;100132.69;;;10.31;41.31
31088;BME280;17745;55.914;37.554;2023-04-09T02:52:32;100119.91;;;10.28;41.29
31088;BME280;17745;55.914;37.554;2023-04-09T02:55:01;100138.34;;;10.35;41.28
31088;BME280;17745;55.914;37.554;2023-04-09T02:57:29;100139.38;;;10.34;41.33
31088;BME280;17745;55.914;37.554;2023-04-09T02:59:58;100130.84;;;10.32;41.33
31088;BME280;17745;55.914;37.554;2023-04-09T03:02:26;100125.78;;;10.30;41.35
31088;BME280;17745;55.914;37.554;2023-04-09T03:04:53;100127.84;;;10.28;41.40
31088;BME280;17745;55.914;37.554;2023-04-09T03:07:23;100128.87;;;10.27;41.43
31088;BME280;17745;55.914;37.554;2023-04-09T03:09:51;100129.69;;;10.27;41.44
31088;BME280;17745;55.914;37.554;2023-04-09T03:12:20;100135.78;;;10.28;41.43
31088;BME280;17745;55.914;37.554;2023-04-09T03:14:48;100143.47;;;10.29;41.46
31088;BME280;17745;55.914;37.554;2023-04-09T03:17:15;100133.34;;;10.26;41.44
31088;BME280;17745;55.914;37.554;2023-04-09T03:19:43;100132.00;;;10.24;41.51
31088;BME280;17745;55.914;37.554;2023-04-09T03:22:11;100133.22;;;10.21;41.53
31088;BME280;17745;55.914;37.554;2023-04-09T03:24:39;100136.09;;;10.20;41.56
31088;BME280;17745;55.914;37.554;2023-04-09T03:27:07;100135.31;;;10.19;41.58
31088;BME280;17745;55.914;37.554;2023-04-09T03:29:37;100136.34;;;10.18;41.63
31088;BME280;17745;55.914;37.554;2023-04-09T03:32:05;100137.94;;;10.19;41.64
31088;BME280;17745;55.914;37.554;2023-04-09T03:34:32;100138.16;;;10.18;41.67
31088;BME280;17745;55.914;37.554;2023-04-09T03:37:01;100139.00;;;10.18;41.68
31088;BME280;17745;55.914;37.554;2023-04-09T03:39:28;100137.94;;;10.19;41.71
31088;BME280;17745;55.914;37.554;2023-04-09T03:41:56;100135.09;;;10.21;41.68
31088;BME280;17745;55.914;37.554;2023-04-09T03:44:25;100130.38;;;10.23;41.69
31088;BME280;17745;55.914;37.554;2023-04-09T03:46:54;100130.12;;;10.24;41.66
31088;BME280;17745;55.914;37.554;2023-04-09T03:49:23;100126.91;;;10.22;41.70
31088;BME280;17745;55.914;37.554;2023-04-09T03:51:51;100137.41;;;10.29;41.68
31088;BME280;17745;55.914;37.554;2023-04-09T03:54:19;100128.63;;;10.28;41.69
31088;BME280;17745;55.914;37.554;2023-04-09T03:56:48;100129.47;;;10.29;41.74
31088;BME280;17745;55.914;37.554;2023-04-09T03:59:19;100128.22;;;10.32;41.77
31088;BME280;17745;55.914;37.554;2023-04-09T04:01:46;100130.59;;;10.33;41.76
31088;BME280;17745;55.914;37.554;2023-04-09T04:04:17;100131.44;;;10.34;41.78
31088;BME280;17745;55.914;37.554;2023-04-09T04:06:44;100129.13;;;10.37;41.80
31088;BME280;17745;55.914;37.554;2023-04-09T04:09:19;100133.75;;;10.42;41.73
31088;BME280;17745;55.914;37.554;2023-04-09T04:11:48;100140.56;;;10.50;41.67
31088;BME280;17745;55.914;37.554;2023-04-09T04:14:16;100129.88;;;10.56;41.61
31088;BME280;17745;55.914;37.554;2023-04-09T04:16:44;100129.97;;;10.62;41.58
31088;BME280;17745;55.914;37.554;2023-04-09T04:19:14;100129.41;;;10.71;41.53
31088;BME280;17745;55.914;37.554;2023-04-09T04:21:43;100126.66;;;10.78;41.47
31088;BME280;17745;55.914;37.554;2023-04-09T04:24:11;100128.94;;;10.86;41.47
31088;BME280;17745;55.914;37.554;2023-04-09T04:26:39;100125.72;;;10.96;41.42
31088;BME280;17745;55.914;37.554;2023-04-09T04:29:08;100120.41;;;11.08;41.34
31088;BME280;17745;55.914;37.554;2023-04-09T04:31:36;100125.94;;;11.19;41.22
31088;BME280;17745;55.914;37.554;2023-04-09T04:34:04;100127.63;;;11.25;41.15
31088;BME280;17745;55.914;37.554;2023-04-09T04:36:32;100130.38;;;11.30;41.06
31088;BME280;17745;55.914;37.554;2023-04-09T04:39:02;100122.31;;;11.37;41.03
31088;BME280;17745;55.914;37.554;2023-04-09T04:41:30;100127.81;;;11.47;40.97
31088;BME280;17745;55.914;37.554;2023-04-09T04:44:02;100128.25;;;11.56;40.83
31088;BME280;17745;55.914;37.554;2023-04-09T04:46:31;100133.41;;;11.63;40.79
31088;BME280;17745;55.914;37.554;2023-04-09T04:48:58;100129.56;;;11.70;40.73
31088;BME280;17745;55.914;37.554;2023-04-09T04:51:26;100127.12;;;11.81;40.63
31088;BME280;17745;55.914;37.554;2023-04-09T04:53:55;100129.50;;;11.94;40.60
31088;BME280;17745;55.914;37.554;2023-04-09T04:56:24;100123.88;;;12.08;40.55
31088;BME280;17745;55.914;37.554;2023-04-09T04:58:52;100119.63;;;12.24;40.44
31088;BME280;17745;55.914;37.554;2023-04-09T05:01:21;100124.63;;;12.37;40.38
31088;BME280;17745;55.914;37.554;2023-04-09T05:03:50;100116.28;;;12.46;40.26
31088;BME280;17745;55.914;37.554;2023-04-09T05:06:21;100133.00;;;12.46;40.22
31088;BME280;17745;55.914;37.554;2023-04-09T05:08:49;100134.63;;;12.47;40.31
31088;BME280;17745;55.914;37.554;2023-04-09T05:11:16;100128.81;;;12.50;40.37
31088;BME280;17745;55.914;37.554;2023-04-09T05:13:46;100130.97;;;12.53;40.27
31088;BME280;17745;55.914;37.554;2023-04-09T05:16:15;100126.25;;;12.55;40.28
31088;BME280;17745;55.914;37.554;2023-04-09T05:18:44;100142.34;;;12.66;40.20
31088;BME280;17745;55.914;37.554;2023-04-09T05:21:12;100129.69;;;12.73;40.16
31088;BME280;17745;55.914;37.554;2023-04-09T05:23:40;100125.56;;;12.82;40.16
31088;BME280;17745;55.914;37.554;2023-04-09T05:26:08;100123.31;;;12.91;40.16
31088;BME280;17745;55.914;37.554;2023-04-09T05:28:37;100125.84;;;13.03;40.09
31088;BME280;17745;55.914;37.554;2023-04-09T05:31:06;100124.91;;;13.14;40.05
31088;BME280;17745;55.914;37.554;2023-04-09T05:33:40;100119.91;;;13.18;40.09
31088;BME280;17745;55.914;37.554;2023-04-09T05:36:14;100120.78;;;13.24;40.07
31088;BME280;17745;55.914;37.554;2023-04-09T05:38:42;100129.66;;;13.29;39.83
31088;BME280;17745;55.914;37.554;2023-04-09T05:41:13;100125.13;;;13.30;39.79
31088;BME280;17745;55.914;37.554;2023-04-09T05:43:52;100127.28;;;13.33;39.74
31088;BME280;17745;55.914;37.554;2023-04-09T05:46:25;100135.87;;;13.40;39.63
31088;BME280;17745;55.914;37.554;2023-04-09T05:49:00;100144.81;;;13.51;39.44
31088;BME280;17745;55.914;37.554;2023-04-09T05:51:38;100144.38;;;13.60;39.15
31088;BME280;17745;55.914;37.554;2023-04-09T05:54:23;100139.72;;;13.72;39.10
31088;BME280;17745;55.914;37.554;2023-04-09T05:56:54;100144.91;;;13.84;38.91
31088;BME280;17745;55.914;37.554;2023-04-09T05:59:24;100137.00;;;13.94;38.60
31088;BME280;17745;55.914;37.554;2023-04-09T06:01:59;100143.84;;;14.12;38.41
31088;BME280;17745;55.914;37.554;2023-04-09T06:04:27;100142.09;;;14.28;38.18
31088;BME280;17745;55.914;37.554;2023-04-09T06:06:55;100147.06;;;14.52;37.94
31088;BME280;17745;55.914;37.554;2023-04-09T06:09:25;100149.84;;;14.63;37.79
31088;BME280;17745;55.914;37.554;2023-04-09T06:11:55;100139.75;;;14.70;37.72
31088;BME280;17745;55.914;37.554;2023-04-09T06:14:23;100143.59;;;14.84;37.43
31088;BME280;17745;55.914;37.554;2023-04-09T06:16:51;100144.97;;;14.92;37.31
31088;BME280;17745;55.914;37.554;2023-04-09T06:19:21;100149.53;;;14.97;37.13
31088;BME280;17745;55.914;37.554;2023-04-09T06:21:48;100154.06;;;14.96;37.02
31088;BME280;17745;55.914;37.554;2023-04-09T06:24:18;100150.56;;;14.91;36.84
31088;BME280;17745;55.914;37.554;2023-04-09T06:26:46;100150.78;;;14.84;36.82
31088;BME280;17745;55.914;37.554;2023-04-09T06:29:14;100152.37;;;14.80;36.90
31088;BME280;17745;55.914;37.554;2023-04-09T06:31:41;100153.94;;;14.76;36.89
31088;BME280;17745;55.914;37.554;2023-04-09T06:34:09;100159.22;;;14.70;37.03
31088;BME280;17745;55.914;37.554;2023-04-09T06:36:38;100153.66;;;14.77;37.01
31088;BME280;17745;55.914;37.554;2023-04-09T06:39:06;100160.72;;;14.94;36.84
31088;BME280;17745;55.914;37.554;2023-04-09T06:41:34;100162.66;;;15.09;36.67
31088;BME280;17745;55.914;37.554;2023-04-09T06:44:05;100163.00;;;15.23;36.34
31088;BME280;17745;55.914;37.554;2023-04-09T06:46:32;100164.12;;;15.37;36.18
31088;BME280;17745;55.914;37.554;2023-04-09T06:49:00;100163.34;;;15.42;35.99
31088;BME280;17745;55.914;37.554;2023-04-09T06:51:28;100165.47;;;15.35;36.07
31088;BME280;17745;55.914;37.554;2023-04-09T06:54:01;100167.84;;;15.36;36.11
31088;BME280;17745;55.914;37.554;2023-04-09T06:56:31;100162.81;;;15.50;35.95
31088;BME280;17745;55.914;37.554;2023-04-09T06:58:58;100165.56;;;15.66;35.86
31088;BME280;17745;55.914;37.554;2023-04-09T07:01:26;100162.66;;;15.78;35.57
31088;BME280;17745;55.914;37.554;2023-04-09T07:03:54;100165.91;;;15.90;35.31
31088;BME280;17745;55.914;37.554;2023-04-09T07:06:45;100174.47;;;15.97;35.08
31088;BME280;17745;55.914;37.554;2023-04-09T07:09:31;100168.63;;;16.16;34.79
31088;BME280;17745;55.914;37.554;2023-04-09T07:15:11;100167.28;;;16.70;33.99
31088;BME280;17745;55.914;37.554;2023-04-09T07:17:38;100173.44;;;16.66;33.98
31088;BME280;17745;55.914;37.554;2023-04-09T07:20:07;100161.16;;;16.54;33.89
31088;BME280;17745;55.914;37.554;2023-04-09T07:22:35;100167.00;;;16.62;33.86
31088;BME280;17745;55.914;37.554;2023-04-09T07:31:47;100159.53;;;16.69;33.05
31088;BME280;17745;55.914;37.554;2023-04-09T07:34:16;100165.66;;;16.69;32.60
31088;BME280;17745;55.914;37.554;2023-04-09T07:36:44;100157.69;;;16.54;32.73
31088;BME280;17745;55.914;37.554;2023-04-09T07:39:12;100168.38;;;16.43;32.79
31088;BME280;17745;55.914;37.554;2023-04-09T07:41:43;100155.00;;;16.38;32.59
31088;BME280;17745;55.914;37.554;2023-04-09T07:44:16;100172.09;;;16.42;32.64
31088;BME280;17745;55.914;37.554;2023-04-09T07:47:28;100164.62;;;16.44;32.54
31088;BME280;17745;55.914;37.554;2023-04-09T07:50:04;100168.38;;;16.54;32.23
31088;BME280;17745;55.914;37.554;2023-04-09T07:52:32;100161.94;;;16.65;32.19
31088;BME280;17745;55.914;37.554;2023-04-09T07:55:01;100157.66;;;16.75;31.95
31088;BME280;17745;55.914;37.554;2023-04-09T07:57:33;100170.22;;;16.84;31.90
31088;BME280;17745;55.914;37.554;2023-04-09T08:00:20;100168.84;;;16.92;31.59
31088;BME280;17745;55.914;37.554;2023-04-09T08:03:09;100163.53;;;16.82;31.70
31088;BME280;17745;55.914;37.554;2023-04-09T08:05:56;100158.16;;;16.82;31.76
31088;BME280;17745;55.914;37.554;2023-04-09T08:08:26;100163.50;;;16.97;31.55
31088;BME280;17745;55.914;37.554;2023-04-09T08:10:54;100156.53;;;17.07;31.46
31088;BME280;17745;55.914;37.554;2023-04-09T08:13:25;100151.94;;;17.18;31.51
31088;BME280;17745;55.914;37.554;2023-04-09T08:15:55;100152.72;;;17.28;31.20
31088;BME280;17745;55.914;37.554;2023-04-09T08:18:27;100143.91;;;17.28;31.04
31088;BME280;17745;55.914;37.554;2023-04-09T08:21:40;100148.47;;;17.17;31.17
31088;BME280;17745;55.914;37.554;2023-04-09T08:24:31;100141.22;;;17.23;31.14
31088;BME280;17745;55.914;37.554;2023-04-09T08:27:21;100146.06;;;17.15;31.00
31088;BME280;17745;55.914;37.554;2023-04-09T08:30:07;100150.91;;;17.13;30.95
31088;BME280;17745;55.914;37.554;2023-04-09T08:32:45;100146.56;;;17.23;30.96
31088;BME280;17745;55.914;37.554;2023-04-09T08:35:16;100148.19;;;17.19;30.86
31088;BME280;17745;55.914;37.554;2023-04-09T08:37:59;100130.28;;;17.14;30.91
31088;BME280;17745;55.914;37.554;2023-04-09T08:40:45;100152.53;;;16.99;30.99
31088;BME280;17745;55.914;37.554;2023-04-09T08:46:21;100148.78;;;16.95;31.18
31088;BME280;17745;55.914;37.554;2023-04-09T08:49:07;100139.16;;;17.09;31.19
31088;BME280;17745;55.914;37.554;2023-04-09T08:51:54;100136.13;;;17.26;31.19
31088;BME280;17745;55.914;37.554;2023-04-09T08:54:34;100127.81;;;17.33;31.06
31088;BME280;17745;55.914;37.554;2023-04-09T08:57:10;100132.59;;;17.36;31.00
31088;BME280;17745;55.914;37.554;2023-04-09T08:59:47;100139.78;;;17.46;30.92
31088;BME280;17745;55.914;37.554;2023-04-09T09:02:25;100126.13;;;17.48;30.76
31088;BME280;17745;55.914;37.554;2023-04-09T09:05:02;100127.41;;;17.61;30.75
31088;BME280;17745;55.914;37.554;2023-04-09T09:07:31;100136.22;;;17.61;30.52
31088;BME280;17745;55.914;37.554;2023-04-09T09:10:13;100128.00;;;17.47;30.58
31088;BME280;17745;55.914;37.554;2023-04-09T09:12:50;100126.19;;;17.37;30.50
31088;BME280;17745;55.914;37.554;2023-04-09T09:15:26;100126.22;;;17.32;30.63
31088;BME280;17745;55.914;37.554;2023-04-09T09:17:58;100124.78;;;17.50;30.42
31088;BME280;17745;55.914;37.554;2023-04-09T09:20:29;100121.44;;;17.69;30.38
31088;BME280;17745;55.914;37.554;2023-04-09T09:23:00;100127.84;;;17.78;30.20
31088;BME280;17745;55.914;37.554;2023-04-09T09:25:40;100124.44;;;17.67;30.16
31088;BME280;17745;55.914;37.554;2023-04-09T09:28:12;100122.31;;;17.59;30.31
31088;BME280;17745;55.914;37.554;2023-04-09T09:30:45;100116.41;;;17.62;30.25
31088;BME280;17745;55.914;37.554;2023-04-09T09:33:21;100115.22;;;17.79;30.13
31088;BME280;17745;55.914;37.554;2023-04-09T09:36:09;100108.66;;;18.00;29.92
31088;BME280;17745;55.914;37.554;2023-04-09T09:38:53;100115.44;;;18.27;29.63
31088;BME280;17745;55.914;37.554;2023-04-09T09:41:22;100111.63;;;18.63;29.31
31088;BME280;17745;55.914;37.554;2023-04-09T09:43:56;100099.81;;;18.89;29.19
31088;BME280;17745;55.914;37.554;2023-04-09T09:46:27;100113.94;;;18.99;28.73
31088;BME280;17745;55.914;37.554;2023-04-09T09:48:59;100110.56;;;18.89;28.69
31088;BME280;17745;55.914;37.554;2023-04-09T09:51:30;100109.47;;;18.90;28.68
31088;BME280;17745;55.914;37.554;2023-04-09T09:53:59;100109.38;;;19.00;28.59
31088;BME280;17745;55.914;37.554;2023-04-09T09:59:40;100110.84;;;19.11;28.20
31088;BME280;17745;55.914;37.554;2023-04-09T10:02:15;100105.09;;;18.99;27.83
31088;BME280;17745;55.914;37.554;2023-04-09T10:04:54;100110.00;;;18.86;28.07
31088;BME280;17745;55.914;37.554;2023-04-09T10:07:25;100098.25;;;18.82;27.96
31088;BME280;17745;55.914;37.554;2023-04-09T10:10:13;100116.75;;;18.84;27.81
31088;BME280;17745;55.914;37.554;2023-04-09T10:12:43;100117.34;;;18.81;27.95
31088;BME280;17745;55.914;37.554;2023-04-09T10:15:12;100108.06;;;18.92;27.67
31088;BME280;17745;55.914;37.554;2023-04-09T10:17:41;100108.22;;;19.06;27.27
31088;BME280;17745;55.914;37.554;2023-04-09T10:20:14;100107.75;;;19.23;27.31
31088;BME280;17745;55.914;37.554;2023-04-09T10:22:47;100110.31;;;19.53;27.12
31088;BME280;17745;55.914;37.554;2023-04-09T10:25:19;100111.03;;;19.78;26.93
31088;BME280;17745;55.914;37.554;2023-04-09T10:27:58;100108.63;;;19.57;27.04
31088;BME280;17745;55.914;37.554;2023-04-09T10:30:38;100105.22;;;19.51;26.93
31088;BME280;17745;55.914;37.554;2023-04-09T10:33:22;100101.22;;;19.68;26.77
31088;BME280;17745;55.914;37.554;2023-04-09T10:35:58;100104.00;;;19.63;26.70
31088;BME280;17745;55.914;37.554;2023-04-09T10:38:36;100099.03;;;19.32;26.98
31088;BME280;17745;55.914;37.554;2023-04-09T10:41:28;100097.09;;;19.37;26.85
31088;BME280;17745;55.914;37.554;2023-04-09T10:44:05;100096.00;;;19.38;26.90
31088;BME280;17745;55.914;37.554;2023-04-09T10:46:53;100096.75;;;19.44;26.62
31088;BME280;17745;55.914;37.554;2023-04-09T10:49:40;100094.19;;;19.53;26.62
31088;BME280;17745;55.914;37.554;2023-04-09T10:52:31;100098.19;;;19.75;26.49
31088;BME280;17745;55.914;37.554;2023-04-09T10:55:09;100100.50;;;19.81;26.26
31088;BME280;17745;55.914;37.554;2023-04-09T10:57:45;100103.47;;;19.80;26.14
31088;BME280;17745;55.914;37.554;2023-04-09T11:01:00;100105.06;;;19.81;26.12
31088;BME280;17745;55.914;37.554;2023-04-09T11:03:43;100093.41;;;19.71;25.83
31088;BME280;17745;55.914;37.554;2023-04-09T11:06:21;100095.78;;;19.54;25.54
31088;BME280;17745;55.914;37.554;2023-04-09T11:09:00;100093.94;;;19.68;25.80
31088;BME280;17745;55.914;37.554;2023-04-09T11:11:52;100088.16;;;19.99;25.75
31088;BME280;17745;55.914;37.554;2023-04-09T11:15:31;100091.09;;;20.17;25.77
31088;BME280;17745;55.914;37.554;2023-04-09T11:17:39;100097.59;;;20.30;25.60
31088;BME280;17745;55.914;37.554;2023-04-09T11:20:19;100081.13;;;20.18;25.84
31088;BME280;17745;55.914;37.554;2023-04-09T11:23:12;100084.22;;;20.11;26.01
31088;BME280;17745;55.914;37.554;2023-04-09T11:25:57;100083.28;;;20.02;26.04
31088;BME280;17745;55.914;37.554;2023-04-09T11:28:26;100079.88;;;19.77;26.25
31088;BME280;17745;55.914;37.554;2023-04-09T11:30:54;100078.28;;;19.56;26.44
31088;BME280;17745;55.914;37.554;2023-04-09T11:33:31;100075.75;;;19.46;26.57
31088;BME280;17745;55.914;37.554;2023-04-09T11:36:04;100083.75;;;19.32;26.62
31088;BME280;17745;55.914;37.554;2023-04-09T11:39:01;100075.66;;;19.13;26.80
31088;BME280;17745;55.914;37.554;2023-04-09T11:41:40;100085.59;;;19.12;26.87
31088;BME280;17745;55.914;37.554;2023-04-09T11:44:11;100085.31;;;19.14;26.77
31088;BME280;17745;55.914;37.554;2023-04-09T11:46:45;100083.94;;;19.17;26.82
31088;BME280;17745;55.914;37.554;2023-04-09T11:49:20;100070.75;;;19.20;26.77
31088;BME280;17745;55.914;37.554;2023-04-09T11:51:49;100076.19;;;19.34;26.66
31088;BME280;17745;55.914;37.554;2023-04-09T11:54:30;100074.75;;;19.42;26.60
31088;BME280;17745;55.914;37.554;2023-04-09T11:57:03;100077.91;;;19.63;26.48
31088;BME280;17745;55.914;37.554;2023-04-09T11:59:37;100074.19;;;19.78;26.39
31088;BME280;17745;55.914;37.554;2023-04-09T12:02:11;100071.63;;;19.87;26.32
31088;BME280;17745;55.914;37.554;2023-04-09T12:04:50;100068.63;;;19.94;26.31
31088;BME280;17745;55.914;37.554;2023-04-09T12:07:21;100078.84;;;19.92;26.36
31088;BME280;17745;55.914;37.554;2023-04-09T12:09:54;100076.44;;;19.90;26.37
31088;BME280;17745;55.914;37.554;2023-04-09T12:12:39;100075.44;;;20.05;26.20
31088;BME280;17745;55.914;37.554;2023-04-09T12:15:21;100072.13;;;20.41;25.82
31088;BME280;17745;55.914;37.554;2023-04-09T12:17:55;100059.97;;;20.72;25.69
31088;BME280;17745;55.914;37.554;2023-04-09T12:20:39;100071.03;;;20.98;25.40
31088;BME280;17745;55.914;37.554;2023-04-09T12:23:11;100059.91;;;21.28;25.20
31088;BME280;17745;55.914;37.554;2023-04-09T12:25:42;100055.91;;;21.62;24.91
31088;BME280;17745;55.914;37.554;2023-04-09T12:28:15;100058.00;;;21.88;24.65
31088;BME280;17745;55.914;37.554;2023-04-09T12:30:46;100056.66;;;21.99;23.79
31088;BME280;17745;55.914;37.554;2023-04-09T12:33:27;100057.94;;;21.79;24.05
31088;BME280;17745;55.914;37.554;2023-04-09T12:35:59;100053.22;;;21.62;24.06
31088;BME280;17745;55.914;37.554;2023-04-09T12:38:33;100054.25;;;21.02;24.42
31088;BME280;17745;55.914;37.554;2023-04-09T12:41:02;100056.06;;;20.50;24.82
31088;BME280;17745;55.914;37.554;2023-04-09T12:43:33;100054.94;;;20.23;24.98
31088;BME280;17745;55.914;37.554;2023-04-09T12:46:04;100058.69;;;19.94;25.17
31088;BME280;17745;55.914;37.554;2023-04-09T12:48:37;100061.28;;;19.80;25.33
31088;BME280;17745;55.914;37.554;2023-04-09T12:51:08;100052.91;;;19.82;25.25
31088;BME280;17745;55.914;37.554;2023-04-09T12:53:37;100055.97;;;19.94;25.20
31088;BME280;17745;55.914;37.554;2023-04-09T12:56:13;100056.12;;;20.17;25.05
31088;BME280;17745;55.914;37.554;2023-04-09T12:58:53;100060.53;;;20.41;24.90
31088;BME280;17745;55.914;37.554;2023-04-09T13:01:47;100054.56;;;20.44;24.83
31088;BME280;17745;55.914;37.554;2023-04-09T13:04:32;100053.09;;;20.52;24.85
31088;BME280;17745;55.914;37.554;2023-04-09T13:07:21;100051.88;;;20.58;24.74
31088;BME280;17745;55.914;37.554;2023-04-09T13:10:14;100052.47;;;20.55;24.62
31088;BME280;17745;55.914;37.554;2023-04-09T13:13:00;100049.50;;;20.56;24.63
31088;BME280;17745;55.914;37.554;2023-04-09T13:15:49;100052.19;;;20.56;24.66
31088;BME280;17745;55.914;37.554;2023-04-09T13:18:25;100046.31;;;20.82;24.43
31088;BME280;17745;55.914;37.554;2023-04-09T13:21:03;100042.47;;;21.11;24.18
31088;BME280;17745;55.914;37.554;2023-04-09T13:23:36;100041.31;;;22.09;23.32
31088;BME280;17745;55.914;37.554;2023-04-09T13:26:26;100044.34;;;22.07;23.25
31088;BME280;17745;55.914;37.554;2023-04-09T13:29:05;100045.44;;;21.83;23.42